sensor_id;sensor_type;location;lat;lon;timestamp;P1;durP1;ratioP1;P2;durP2;ratioP2
35243;SDS011;37916;52.160;21.066;2024-01-15T00:08:57;12.57;;;5.72;;
35243;SDS011;37916;52.160;21.066;2024-01-15T00:18:58;10.77;;;6.32;;
35243;SDS011;37916;52.160;21.066;2024-01-15T00:28:59;10.70;;;6.90;;
35243;SDS011;37916;52.160;21.066;2024-01-15T00:39:00;15.75;;;7.70;;
35243;SDS011;37916;52.160;21.066;2024-01-15T00:49:01;13.57;;;6.63;;
35243;SDS011;37916;52.160;21.066;2024-01-15T00:59:03;13.27;;;7.43;;
35243;SDS011;37916;52.160;21.066;2024-01-15T01:09:04;14.07;;;7.80;;
35243;SDS011;37916;52.160;21.066;2024-01-15T01:19:05;13.98;;;7.53;;
35243;SDS011;37916;52.160;21.066;2024-01-15T01:29:09;12.55;;;8.32;;
35243;SDS011;37916;52.160;21.066;2024-01-15T01:39:10;15.07;;;8.05;;
35243;SDS011;37916;52.160;21.066;2024-01-15T01:49:11;14.63;;;8.68;;
35243;SDS011;37916;52.160;21.066;2024-01-15T01:59:13;15.68;;;10.05;;
35243;SDS011;37916;52.160;21.066;2024-01-15T02:09:14;15.27;;;9.07;;
35243;SDS011;37916;52.160;21.066;2024-01-15T02:19:18;17.17;;;9.75;;
35243;SDS011;37916;52.160;21.066;2024-01-15T02:29:19;16.70;;;9.52;;
35243;SDS011;37916;52.160;21.066;2024-01-15T02:39:20;15.43;;;9.35;;
35243;SDS011;37916;52.160;21.066;2024-01-15T02:49:22;18.42;;;9.98;;
35243;SDS011;37916;52.160;21.066;2024-01-15T02:59:23;15.88;;;9.60;;
35243;SDS011;37916;52.160;21.066;2024-01-15T03:09:24;13.63;;;8.35;;
35243;SDS011;37916;52.160;21.066;2024-01-15T03:19:25;17.50;;;9.98;;
35243;SDS011;37916;52.160;21.066;2024-01-15T03:29:27;16.05;;;9.32;;
35243;SDS011;37916;52.160;21.066;2024-01-15T03:39:28;16.75;;;9.93;;
35243;SDS011;37916;52.160;21.066;2024-01-15T03:49:29;18.15;;;8.98;;
35243;SDS011;37916;52.160;21.066;2024-01-15T03:59:29;17.88;;;10.13;;
35243;SDS011;37916;52.160;21.066;2024-01-15T04:09:30;15.30;;;8.95;;
35243;SDS011;37916;52.160;21.066;2024-01-15T04:19:31;17.48;;;8.98;;
35243;SDS011;37916;52.160;21.066;2024-01-15T04:29:32;16.38;;;8.65;;
35243;SDS011;37916;52.160;21.066;2024-01-15T04:39:33;16.02;;;9.13;;
35243;SDS011;37916;52.160;21.066;2024-01-15T04:49:34;15.75;;;8.48;;
35243;SDS011;37916;52.160;21.066;2024-01-15T04:59:35;13.10;;;7.57;;
35243;SDS011;37916;52.160;21.066;2024-01-15T05:09:36;18.58;;;8.95;;
35243;SDS011;37916;52.160;21.066;2024-01-15T05:19:37;13.93;;;8.63;;
35243;SDS011;37916;52.160;21.066;2024-01-15T05:29:38;13.88;;;8.07;;
35243;SDS011;37916;52.160;21.066;2024-01-15T05:39:39;12.95;;;8.55;;
35243;SDS011;37916;52.160;21.066;2024-01-15T05:49:40;11.85;;;7.18;;
35243;SDS011;37916;52.160;21.066;2024-01-15T05:59:42;10.88;;;6.63;;
35243;SDS011;37916;52.160;21.066;2024-01-15T06:09:43;11.45;;;7.28;;
35243;SDS011;37916;52.160;21.066;2024-01-15T06:19:45;12.55;;;8.07;;
35243;SDS011;37916;52.160;21.066;2024-01-15T06:29:46;12.32;;;7.53;;
35243;SDS011;37916;52.160;21.066;2024-01-15T06:39:47;13.63;;;8.15;;
35243;SDS011;37916;52.160;21.066;2024-01-15T06:49:48;12.48;;;8.50;;
35243;SDS011;37916;52.160;21.066;2024-01-15T06:59:50;12.65;;;7.50;;
35243;SDS011;37916;52.160;21.066;2024-01-15T07:09:51;12.90;;;8.10;;
35243;SDS011;37916;52.160;21.066;2024-01-15T07:19:52;11.23;;;7.20;;
35243;SDS011;37916;52.160;21.066;2024-01-15T07:29:53;11.02;;;6.60;;
35243;SDS011;37916;52.160;21.066;2024-01-15T07:39:54;11.68;;;7.82;;
35243;SDS011;37916;52.160;21.066;2024-01-15T07:49:55;12.38;;;7.13;;
35243;SDS011;37916;52.160;21.066;2024-01-15T07:59:56;14.07;;;8.32;;
35243;SDS011;37916;52.160;21.066;2024-01-15T08:09:57;12.13;;;7.55;;
35243;SDS011;37916;52.160;21.066;2024-01-15T08:19:58;14.80;;;6.50;;
35243;SDS011;37916;52.160;21.066;2024-01-15T08:30:00;13.15;;;6.57;;
35243;SDS011;37916;52.160;21.066;2024-01-15T08:40:01;12.32;;;6.88;;
35243;SDS011;37916;52.160;21.066;2024-01-15T08:50:03;14.23;;;6.78;;
35243;SDS011;37916;52.160;21.066;2024-01-15T09:00:05;13.27;;;6.82;;
35243;SDS011;37916;52.160;21.066;2024-01-15T09:10:08;12.53;;;7.13;;
35243;SDS011;37916;52.160;21.066;2024-01-15T09:20:09;8.73;;;6.05;;
35243;SDS011;37916;52.160;21.066;2024-01-15T09:30:11;8.63;;;5.40;;
35243;SDS011;37916;52.160;21.066;2024-01-15T09:40:12;9.43;;;5.85;;
35243;SDS011;37916;52.160;21.066;2024-01-15T09:50:16;10.55;;;5.28;;
35243;SDS011;37916;52.160;21.066;2024-01-15T10:00:18;7.07;;;4.10;;
35243;SDS011;37916;52.160;21.066;2024-01-15T10:10:19;7.90;;;4.28;;
35243;SDS011;37916;52.160;21.066;2024-01-15T10:20:21;7.32;;;3.00;;
35243;SDS011;37916;52.160;21.066;2024-01-15T10:30:22;7.72;;;3.75;;
35243;SDS011;37916;52.160;21.066;2024-01-15T10:40:25;6.90;;;3.10;;
35243;SDS011;37916;52.160;21.066;2024-01-15T10:50:26;9.40;;;3.97;;
35243;SDS011;37916;52.160;21.066;2024-01-15T11:00:27;6.85;;;3.67;;
35243;SDS011;37916;52.160;21.066;2024-01-15T11:10:41;6.57;;;3.60;;
35243;SDS011;37916;52.160;21.066;2024-01-15T11:21:00;8.52;;;4.50;;
35243;SDS011;37916;52.160;21.066;2024-01-15T11:31:03;7.63;;;3.42;;
35243;SDS011;37916;52.160;21.066;2024-01-15T11:41:13;10.63;;;5.40;;
35243;SDS011;37916;52.160;21.066;2024-01-15T11:51:15;14.82;;;5.00;;
35243;SDS011;37916;52.160;21.066;2024-01-15T12:01:18;10.95;;;5.00;;
35243;SDS011;37916;52.160;21.066;2024-01-15T12:11:20;9.02;;;4.18;;
35243;SDS011;37916;52.160;21.066;2024-01-15T12:21:26;9.60;;;5.53;;
35243;SDS011;37916;52.160;21.066;2024-01-15T12:31:27;8.50;;;4.82;;
35243;SDS011;37916;52.160;21.066;2024-01-15T12:41:28;9.68;;;5.32;;
35243;SDS011;37916;52.160;21.066;2024-01-15T12:51:29;9.95;;;5.78;;
35243;SDS011;37916;52.160;21.066;2024-01-15T13:01:30;10.25;;;4.18;;
35243;SDS011;37916;52.160;21.066;2024-01-15T13:11:32;9.45;;;4.88;;
35243;SDS011;37916;52.160;21.066;2024-01-15T13:21:33;13.45;;;5.65;;
35243;SDS011;37916;52.160;21.066;2024-01-15T13:31:34;9.60;;;5.13;;
35243;SDS011;37916;52.160;21.066;2024-01-15T13:41:35;11.18;;;4.75;;
35243;SDS011;37916;52.160;21.066;2024-01-15T13:51:36;12.65;;;5.97;;
35243;SDS011;37916;52.160;21.066;2024-01-15T14:01:38;9.68;;;5.07;;
35243;SDS011;37916;52.160;21.066;2024-01-15T14:11:39;11.07;;;5.47;;
35243;SDS011;37916;52.160;21.066;2024-01-15T14:21:40;9.95;;;5.55;;
35243;SDS011;37916;52.160;21.066;2024-01-15T14:31:41;11.60;;;5.60;;
35243;SDS011;37916;52.160;21.066;2024-01-15T14:41:42;10.27;;;5.05;;
35243;SDS011;37916;52.160;21.066;2024-01-15T14:51:43;11.50;;;5.28;;
35243;SDS011;37916;52.160;21.066;2024-01-15T15:01:44;10.93;;;5.65;;
35243;SDS011;37916;52.160;21.066;2024-01-15T15:11:45;10.98;;;5.28;;
35243;SDS011;37916;52.160;21.066;2024-01-15T15:21:46;13.45;;;5.50;;
35243;SDS011;37916;52.160;21.066;2024-01-15T15:31:47;15.15;;;5.90;;
35243;SDS011;37916;52.160;21.066;2024-01-15T15:41:48;11.02;;;5.47;;
35243;SDS011;37916;52.160;21.066;2024-01-15T15:51:49;12.05;;;6.32;;
35243;SDS011;37916;52.160;21.066;2024-01-15T16:01:51;14.68;;;6.72;;
35243;SDS011;37916;52.160;21.066;2024-01-15T16:11:52;13.75;;;6.65;;
35243;SDS011;37916;52.160;21.066;2024-01-15T16:21:53;14.57;;;7.00;;
35243;SDS011;37916;52.160;21.066;2024-01-15T16:31:55;18.48;;;7.25;;
35243;SDS011;37916;52.160;21.066;2024-01-15T16:41:56;15.27;;;7.75;;
35243;SDS011;37916;52.160;21.066;2024-01-15T16:51:57;12.38;;;5.57;;
35243;SDS011;37916;52.160;21.066;2024-01-15T17:01:58;11.82;;;5.35;;
35243;SDS011;37916;52.160;21.066;2024-01-15T17:11:59;14.68;;;5.90;;
35243;SDS011;37916;52.160;21.066;2024-01-15T17:22:00;12.65;;;6.45;;
35243;SDS011;37916;52.160;21.066;2024-01-15T17:32:00;11.57;;;5.25;;
35243;SDS011;37916;52.160;21.066;2024-01-15T17:42:01;15.80;;;7.07;;
35243;SDS011;37916;52.160;21.066;2024-01-15T17:52:04;13.43;;;7.50;;
35243;SDS011;37916;52.160;21.066;2024-01-15T18:02:05;13.75;;;6.70;;
35243;SDS011;37916;52.160;21.066;2024-01-15T18:12:06;15.25;;;8.02;;
35243;SDS011;37916;52.160;21.066;2024-01-15T18:22:07;15.00;;;7.05;;
35243;SDS011;37916;52.160;21.066;2024-01-15T18:32:09;13.48;;;7.05;;
35243;SDS011;37916;52.160;21.066;2024-01-15T18:42:10;13.20;;;5.78;;
35243;SDS011;37916;52.160;21.066;2024-01-15T18:52:11;8.15;;;4.80;;
35243;SDS011;37916;52.160;21.066;2024-01-15T19:02:12;7.07;;;3.30;;
35243;SDS011;37916;52.160;21.066;2024-01-15T19:12:13;6.55;;;2.58;;
35243;SDS011;37916;52.160;21.066;2024-01-15T19:22:14;5.35;;;2.33;;
35243;SDS011;37916;52.160;21.066;2024-01-15T19:32:15;4.55;;;2.33;;
35243;SDS011;37916;52.160;21.066;2024-01-15T19:42:16;3.67;;;2.13;;
35243;SDS011;37916;52.160;21.066;2024-01-15T19:52:17;3.28;;;1.65;;
35243;SDS011;37916;52.160;21.066;2024-01-15T20:02:18;6.55;;;2.22;;
35243;SDS011;37916;52.160;21.066;2024-01-15T20:12:19;7.50;;;2.08;;
35243;SDS011;37916;52.160;21.066;2024-01-15T20:22:21;2.90;;;1.17;;
35243;SDS011;37916;52.160;21.066;2024-01-15T20:32:22;2.47;;;1.50;;
35243;SDS011;37916;52.160;21.066;2024-01-15T20:42:24;2.33;;;0.98;;
35243;SDS011;37916;52.160;21.066;2024-01-15T20:52:25;3.10;;;1.30;;
35243;SDS011;37916;52.160;21.066;2024-01-15T21:02:26;3.63;;;1.13;;
35243;SDS011;37916;52.160;21.066;2024-01-15T21:12:27;3.00;;;1.55;;
35243;SDS011;37916;52.160;21.066;2024-01-15T21:22:28;3.22;;;1.45;;
35243;SDS011;37916;52.160;21.066;2024-01-15T21:32:29;4.90;;;1.83;;
35243;SDS011;37916;52.160;21.066;2024-01-15T21:42:30;4.32;;;1.40;;
35243;SDS011;37916;52.160;21.066;2024-01-15T21:52:31;5.43;;;1.58;;
35243;SDS011;37916;52.160;21.066;2024-01-15T22:02:32;3.47;;;1.52;;
35243;SDS011;37916;52.160;21.066;2024-01-15T22:12:39;9.00;;;1.77;;
35243;SDS011;37916;52.160;21.066;2024-01-15T22:22:41;5.20;;;1.98;;
35243;SDS011;37916;52.160;21.066;2024-01-15T22:32:42;7.40;;;1.50;;
35243;SDS011;37916;52.160;21.066;2024-01-15T22:42:43;6.18;;;1.38;;
35243;SDS011;37916;52.160;21.066;2024-01-15T22:52:44;4.50;;;1.25;;
35243;SDS011;37916;52.160;21.066;2024-01-15T23:02:45;2.55;;;1.10;;
35243;SDS011;37916;52.160;21.066;2024-01-15T23:12:46;3.28;;;2.15;;
35243;SDS011;37916;52.160;21.066;2024-01-15T23:22:47;3.65;;;0.90;;
35243;SDS011;37916;52.160;21.066;2024-01-15T23:32:48;3.00;;;0.82;;
35243;SDS011;37916;52.160;21.066;2024-01-15T23:42:49;1.88;;;1.20;;
35243;SDS011;37916;52.160;21.066;2024-01-15T23:52:50;2.60;;;1.00;;
